Fort Worth - NOAA's Hourly Summary for Thursday, March 16, 2017
Hour Temp
(f)
RH
(%)
Solar Rad.
(MJ/m2)
Rainfall
(in)
Wind
(mph)
3/16/2017 12:00 AM 56 65 0 0 5.9
3/16/2017 1:00 AM 56 67 0 0 5.5
3/16/2017 2:00 AM 55 70 0 0 6.6
3/16/2017 3:00 AM 55 76 0 0 7.54
3/16/2017 4:00 AM 55 83 0 0 6
3/16/2017 5:00 AM 55 87 0 0 5.28
3/16/2017 6:00 AM 57 89 0 0 6
3/16/2017 7:00 AM 58 88 0 0 6.59
3/16/2017 8:00 AM 59 87 0.12 0 5.61
3/16/2017 9:00 AM 60 85 0.4 0 7.17
3/16/2017 10:00 AM 61 83 0.5 0 7.69
3/16/2017 11:00 AM 62 82 0.5 0 7.06
3/16/2017 12:00 PM 64 77 1 0 7.91
3/16/2017 1:00 PM 67 71 1.41 0 8.84
3/16/2017 2:00 PM 68 70 1.18 0 9.94
3/16/2017 3:00 PM 69 69 0.97 0 9.13
3/16/2017 4:00 PM 71 66 0.92 0 10.27
3/16/2017 5:00 PM 72 63 1.13 0 11.12
3/16/2017 6:00 PM 73 62 0.6 0 8.8
3/16/2017 7:00 PM 71 67 0.1 0 10.1
3/16/2017 8:00 PM 70 71 0 0 7.8
3/16/2017 9:00 PM 69 72 0 0 8.52
3/16/2017 10:00 PM 69 73 0 0 8.22
3/16/2017 11:00 PM 68 74 0 0 7.51
Data Summary 63 74 8.83 0.00 7.71